Time;durP1;ratioP1;P1;durP2;ratioP2;P2;SDS_P1;SDS_P2;PMS_P1;PMS_P2;Temp;Humidity;BMP_temperature;BMP_pressure;BME280_temperature;BME280_humidity;BME280_pressure;Samples;Min_cycle;Max_cycle;Signal;HPM_P1;HPM_P2
2023/09/03 00:00:30;;;;;;;5.87;4.37;;;13.50;99.90;;;;;;5080404;28;20253;-81
2023/09/03 00:02:57;;;;;;;6.87;4.47;;;13.50;99.90;;;;;;5101196;27;20798;-81
2023/09/03 00:05:24;;;;;;;6.27;4.83;;;13.50;99.90;;;;;;5104834;27;20240;-81
2023/09/03 00:07:51;;;;;;;5.30;4.70;;;13.50;99.90;;;;;;5104218;27;20305;-81
2023/09/03 00:10:18;;;;;;;5.67;4.37;;;13.50;99.90;;;;;;5086850;28;20237;-81
2023/09/03 00:12:45;;;;;;;6.53;4.63;;;13.50;99.90;;;;;;5105697;28;20229;-81
2023/09/03 00:15:12;;;;;;;7.07;4.63;;;13.50;99.90;;;;;;5101814;28;20225;-81
2023/09/03 00:17:43;;;;;;;6.97;4.30;;;13.40;99.90;;;;;;5104357;27;20226;-81
2023/09/03 00:20:11;;;;;;;8.77;5.13;;;13.40;99.90;;;;;;5088960;27;20309;-81
2023/09/03 00:22:38;;;;;;;8.97;4.67;;;13.40;99.90;;;;;;5089849;27;20227;-81
2023/09/03 00:25:06;;;;;;;7.57;5.03;;;13.40;99.90;;;;;;5098917;27;20867;-81
2023/09/03 00:27:33;;;;;;;7.97;4.67;;;13.40;99.90;;;;;;5092257;27;20236;-80
2023/09/03 00:30:00;;;;;;;6.63;4.57;;;13.40;99.90;;;;;;5086645;28;20234;-80
2023/09/03 00:32:27;;;;;;;8.07;4.10;;;13.40;99.90;;;;;;5084939;28;20247;-80
2023/09/03 00:34:55;;;;;;;7.70;4.97;;;13.40;99.90;;;;;;5089015;28;20658;-80
2023/09/03 00:37:22;;;;;;;8.80;4.87;;;13.40;99.90;;;;;;5086095;28;20228;-81
2023/09/03 00:39:49;;;;;;;6.37;4.60;;;13.40;99.90;;;;;;5097476;27;20223;-81
2023/09/03 00:42:16;;;;;;;5.63;4.50;;;13.30;99.90;;;;;;5089363;28;20228;-80
2023/09/03 00:44:43;;;;;;;6.73;4.70;;;13.30;99.90;;;;;;5105817;28;20886;-80
2023/09/03 00:47:10;;;;;;;7.30;4.93;;;13.30;99.90;;;;;;5089706;28;20228;-80
2023/09/03 00:49:42;;;;;;;6.57;4.70;;;13.20;99.90;;;;;;5107989;27;20258;-81
2023/09/03 00:52:10;;;;;;;6.27;4.70;;;13.20;99.90;;;;;;5105561;27;20229;-82
2023/09/03 00:54:38;;;;;;;7.30;4.10;;;13.20;99.90;;;;;;5112277;27;20223;-80
2023/09/03 00:57:05;;;;;;;8.27;4.63;;;13.10;99.90;;;;;;5105197;27;20858;-81
2023/09/03 00:59:32;;;;;;;4.83;3.90;;;13.10;99.90;;;;;;5093091;28;20633;-81
2023/09/03 01:01:59;;;;;;;6.90;4.03;;;13.10;99.90;;;;;;5084420;28;20721;-81
2023/09/03 01:04:26;;;;;;;7.00;4.23;;;13.10;99.90;;;;;;5101241;28;20224;-81
2023/09/03 01:06:53;;;;;;;5.97;4.37;;;13.00;99.90;;;;;;5084888;28;20281;-81
2023/09/03 01:09:22;;;;;;;5.70;4.30;;;13.00;99.90;;;;;;5103965;27;20225;-80
2023/09/03 01:11:56;;;;;;;7.43;4.47;;;13.00;99.90;;;;;;5091604;28;20241;-80
2023/09/03 01:14:34;;;;;;;7.17;4.83;;;13.00;99.90;;;;;;5102625;27;20948;-81
2023/09/03 01:17:06;;;;;;;5.63;4.13;;;13.00;99.90;;;;;;5106583;27;20220;-81
2023/09/03 01:19:57;;;;;;;5.13;3.90;;;13.00;99.90;;;;;;5098450;28;20227;-81
2023/09/03 01:22:37;;;;;;;5.97;4.27;;;13.00;99.90;;;;;;5098255;27;20306;-81
2023/09/03 01:25:22;;;;;;;5.50;4.10;;;13.00;99.90;;;;;;5077813;28;20890;-81
2023/09/03 01:27:59;;;;;;;7.10;4.47;;;13.00;99.90;;;;;;5100092;27;20266;-80
2023/09/03 01:30:27;;;;;;;5.87;4.67;;;12.90;99.90;;;;;;5098485;27;20334;-80
2023/09/03 01:32:54;;;;;;;6.00;5.20;;;12.90;99.90;;;;;;5095376;27;20290;-80
2023/09/03 01:35:23;;;;;;;7.57;5.17;;;12.90;99.90;;;;;;5101404;27;20714;-81
2023/09/03 01:37:50;;;;;;;6.27;4.87;;;12.90;99.90;;;;;;5098410;27;20247;-81
2023/09/03 01:40:16;;;;;;;8.83;5.70;;;12.90;99.90;;;;;;5099205;27;20231;-81
2023/09/03 01:42:44;;;;;;;8.83;6.27;;;12.90;99.90;;;;;;5099496;27;20225;-80
2023/09/03 01:45:11;;;;;;;10.17;7.27;;;12.90;99.90;;;;;;5100802;27;20222;-80
2023/09/03 01:47:46;;;;;;;8.20;6.10;;;12.90;99.90;;;;;;5086534;27;20225;-80
2023/09/03 01:50:19;;;;;;;11.40;7.00;;;12.80;99.90;;;;;;5097737;28;20281;-81
2023/09/03 01:52:53;;;;;;;9.77;6.90;;;12.90;99.90;;;;;;5085657;27;20233;-81
2023/09/03 01:55:21;;;;;;;9.07;7.07;;;12.80;99.90;;;;;;5082140;28;20216;-81
2023/09/03 01:57:52;;;;;;;12.30;7.53;;;12.80;99.90;;;;;;5079579;28;20229;-81
2023/09/03 02:00:20;;;;;;;8.20;6.27;;;12.80;99.90;;;;;;5101034;27;20302;-82
2023/09/03 02:02:50;;;;;;;9.13;6.70;;;12.80;99.90;;;;;;5101850;27;20238;-81
2023/09/03 02:05:17;;;;;;;9.83;7.40;;;12.80;99.90;;;;;;5096801;28;20220;-82
2023/09/03 02:07:44;;;;;;;9.23;6.40;;;12.80;99.90;;;;;;5101451;27;20218;-81
2023/09/03 02:10:11;;;;;;;8.67;6.70;;;12.80;99.90;;;;;;5105187;27;20237;-82
2023/09/03 02:12:38;;;;;;;9.00;6.73;;;12.80;99.90;;;;;;5084284;28;20232;-81
2023/09/03 02:15:06;;;;;;;8.87;7.20;;;12.80;99.90;;;;;;5083436;28;20235;-81
2023/09/03 02:17:33;;;;;;;9.83;6.63;;;12.80;99.90;;;;;;5102510;27;20312;-81
2023/09/03 02:20:01;;;;;;;8.70;6.47;;;12.70;99.90;;;;;;5100836;28;20287;-82
2023/09/03 02:22:28;;;;;;;10.00;6.70;;;12.70;99.90;;;;;;5102946;28;20309;-83
2023/09/03 02:24:54;;;;;;;10.37;7.63;;;12.70;99.90;;;;;;5103796;28;20297;-83
2023/09/03 02:27:21;;;;;;;10.67;7.23;;;12.70;99.90;;;;;;5108523;27;20453;-82
2023/09/03 02:29:48;;;;;;;10.43;7.20;;;12.60;99.90;;;;;;5106362;27;20267;-82
2023/09/03 02:32:15;;;;;;;6.70;5.77;;;12.60;99.90;;;;;;5090000;28;20233;-82
2023/09/03 02:34:43;;;;;;;9.13;7.27;;;12.60;99.90;;;;;;5088156;28;20214;-82
2023/09/03 02:37:14;;;;;;;8.47;6.70;;;12.60;99.90;;;;;;5104819;27;20222;-82
2023/09/03 02:39:41;;;;;;;7.90;6.27;;;12.60;99.90;;;;;;5101570;27;20232;-81
2023/09/03 02:42:08;;;;;;;10.33;7.23;;;12.60;99.90;;;;;;5102308;27;20240;-82
2023/09/03 02:44:35;;;;;;;9.83;7.53;;;12.50;99.90;;;;;;5085544;28;20800;-82
2023/09/03 02:47:01;;;;;;;9.63;7.17;;;12.50;99.90;;;;;;5104881;27;20214;-81
2023/09/03 02:49:28;;;;;;;10.67;8.20;;;12.50;99.90;;;;;;5090882;28;20312;-82
2023/09/03 02:51:55;;;;;;;10.97;8.40;;;12.50;99.90;;;;;;5087560;28;20310;-81
2023/09/03 02:54:23;;;;;;;12.97;8.33;;;12.60;99.90;;;;;;5087933;28;20226;-82
2023/09/03 02:56:50;;;;;;;13.10;8.40;;;12.50;99.90;;;;;;5101985;28;20313;-82
2023/09/03 02:59:16;;;;;;;9.33;7.73;;;12.50;99.90;;;;;;5100867;27;20242;-82
2023/09/03 03:01:43;;;;;;;11.20;7.87;;;12.60;99.90;;;;;;5088328;28;20226;-82
2023/09/03 03:04:10;;;;;;;9.17;7.97;;;12.60;99.90;;;;;;5086502;28;20662;-81
2023/09/03 03:06:37;;;;;;;8.93;7.27;;;12.60;99.90;;;;;;5087909;27;20229;-81
2023/09/03 03:09:05;;;;;;;10.07;6.87;;;12.70;99.90;;;;;;5088477;28;20236;-81
2023/09/03 03:11:34;;;;;;;7.67;6.87;;;12.60;99.90;;;;;;5087919;28;20598;-82
2023/09/03 03:14:02;;;;;;;9.90;6.90;;;12.70;99.90;;;;;;5089221;28;20220;-82
2023/09/03 03:16:32;;;;;;;8.40;6.20;;;12.70;99.90;;;;;;5103575;27;20250;-81
2023/09/03 03:19:02;;;;;;;7.97;6.33;;;12.70;99.90;;;;;;5088331;28;20616;-81
2023/09/03 03:21:31;;;;;;;11.23;6.80;;;12.70;99.90;;;;;;5090670;28;20313;-82
2023/09/03 03:24:04;;;;;;;9.23;6.90;;;12.70;99.90;;;;;;5092646;28;20219;-81
2023/09/03 03:26:35;;;;;;;10.40;7.60;;;12.70;99.90;;;;;;5085595;28;20226;-81
2023/09/03 03:29:04;;;;;;;11.30;7.37;;;12.70;99.90;;;;;;5089077;28;20218;-81
2023/09/03 03:31:35;;;;;;;10.43;7.17;;;12.70;99.90;;;;;;5091741;28;20230;-81
2023/09/03 03:34:02;;;;;;;7.77;6.40;;;12.70;99.90;;;;;;5090702;28;20219;-81
2023/09/03 03:36:30;;;;;;;8.17;6.10;;;12.70;99.90;;;;;;5086997;28;20221;-81
2023/09/03 03:38:57;;;;;;;7.80;6.37;;;12.60;99.90;;;;;;5106458;27;20231;-80
2023/09/03 03:41:24;;;;;;;7.70;6.50;;;12.70;99.90;;;;;;5090200;28;20298;-81
2023/09/03 03:43:55;;;;;;;8.97;5.97;;;12.60;99.90;;;;;;5088709;28;20225;-81
2023/09/03 03:46:24;;;;;;;11.73;6.93;;;12.60;99.90;;;;;;5103775;28;20231;-81
2023/09/03 03:48:54;;;;;;;7.77;5.77;;;12.60;99.90;;;;;;5089892;28;20210;-81
2023/09/03 03:51:21;;;;;;;10.70;6.20;;;12.60;99.90;;;;;;5083189;28;20285;-81
2023/09/03 03:53:49;;;;;;;8.20;6.03;;;12.50;99.90;;;;;;5103717;27;20421;-80
2023/09/03 03:56:16;;;;;;;7.97;5.83;;;12.50;99.90;;;;;;5089042;28;20218;-81
2023/09/03 03:58:44;;;;;;;9.37;6.37;;;12.40;99.90;;;;;;5084783;27;20240;-80
2023/09/03 04:01:13;;;;;;;7.93;6.20;;;12.30;99.90;;;;;;5101255;27;20756;-80
2023/09/03 04:03:40;;;;;;;6.43;5.77;;;12.20;99.90;;;;;;5105058;27;20225;-81
2023/09/03 04:06:07;;;;;;;7.97;7.17;;;12.10;99.90;;;;;;5084526;28;20251;-81
2023/09/03 04:08:36;;;;;;;7.03;6.27;;;12.10;99.90;;;;;;5102778;27;20807;-81
2023/09/03 04:11:05;;;;;;;8.77;6.77;;;12.00;99.90;;;;;;5101524;27;20662;-81
2023/09/03 04:13:33;;;;;;;9.03;6.53;;;11.90;99.90;;;;;;5104055;28;20857;-81
2023/09/03 04:16:00;;;;;;;8.63;6.37;;;11.90;99.90;;;;;;5083501;28;20318;-82
2023/09/03 04:18:29;;;;;;;7.13;5.40;;;11.80;99.90;;;;;;5102758;27;20879;-82
2023/09/03 04:20:57;;;;;;;8.33;7.07;;;11.80;99.90;;;;;;5089238;28;20245;-81
2023/09/03 04:23:26;;;;;;;7.47;6.00;;;11.70;99.90;;;;;;5086351;28;20256;-81
2023/09/03 04:25:56;;;;;;;8.27;6.20;;;11.70;99.90;;;;;;5082819;28;20972;-81
2023/09/03 04:28:25;;;;;;;6.47;5.73;;;11.70;99.90;;;;;;5084389;28;20227;-81
2023/09/03 04:30:54;;;;;;;8.03;6.40;;;11.60;99.90;;;;;;5085814;28;20225;-81
2023/09/03 04:33:21;;;;;;;7.50;6.27;;;11.60;99.90;;;;;;5104091;27;20309;-81
2023/09/03 04:35:55;;;;;;;8.10;6.37;;;11.60;99.90;;;;;;5082678;28;20837;-80
2023/09/03 04:38:22;;;;;;;7.17;6.03;;;11.60;99.90;;;;;;5089635;27;20253;-80
2023/09/03 04:40:49;;;;;;;6.37;5.50;;;11.60;99.90;;;;;;5082827;28;20302;-81
2023/09/03 04:43:18;;;;;;;8.20;6.37;;;11.60;99.90;;;;;;5083956;28;20648;-81
2023/09/03 04:45:49;;;;;;;9.47;7.13;;;11.60;99.90;;;;;;5101139;27;20329;-82
2023/09/03 04:48:17;;;;;;;9.13;6.50;;;11.60;99.90;;;;;;5080065;28;20263;-80
2023/09/03 04:50:44;;;;;;;9.70;6.53;;;11.60;99.90;;;;;;5081752;27;20230;-80
2023/09/03 04:53:12;;;;;;;7.93;6.40;;;11.60;99.90;;;;;;5080522;28;20229;-81
2023/09/03 04:55:40;;;;;;;7.43;5.97;;;11.60;99.90;;;;;;5099730;27;20570;-81
2023/09/03 04:58:07;;;;;;;7.27;5.83;;;11.60;99.90;;;;;;5098492;27;20227;-82
2023/09/03 05:00:35;;;;;;;9.47;5.60;;;11.60;99.90;;;;;;5082724;28;20836;-81
2023/09/03 05:03:05;;;;;;;7.10;6.07;;;11.60;99.90;;;;;;5082000;28;20220;-81
2023/09/03 05:05:40;;;;;;;6.93;6.10;;;11.60;99.90;;;;;;5079670;28;20238;-82
2023/09/03 05:08:08;;;;;;;8.77;6.10;;;11.60;99.90;;;;;;5086706;28;20280;-80
2023/09/03 05:10:37;;;;;;;6.73;5.67;;;11.70;99.90;;;;;;5081983;27;20387;-81
2023/09/03 05:13:05;;;;;;;7.60;6.53;;;11.70;99.90;;;;;;5082524;28;20212;-82
2023/09/03 05:15:32;;;;;;;7.33;6.30;;;11.70;99.90;;;;;;5102960;27;20784;-82
2023/09/03 05:18:01;;;;;;;7.80;6.50;;;11.70;99.90;;;;;;5084389;28;20215;-81
2023/09/03 05:20:29;;;;;;;7.13;6.43;;;11.70;99.90;;;;;;5082956;27;20718;-82
2023/09/03 05:22:55;;;;;;;7.20;6.20;;;11.60;99.90;;;;;;5076669;27;20948;-80
2023/09/03 05:25:23;;;;;;;8.13;6.07;;;11.60;99.90;;;;;;5086138;27;20225;-80
2023/09/03 05:27:51;;;;;;;7.70;6.87;;;11.60;99.90;;;;;;5087431;28;20306;-83
2023/09/03 05:30:19;;;;;;;7.83;6.30;;;11.60;99.90;;;;;;5083455;28;20225;-82
2023/09/03 05:32:47;;;;;;;8.20;6.93;;;11.60;99.90;;;;;;5103506;27;20240;-81
2023/09/03 05:35:14;;;;;;;9.33;7.63;;;11.60;99.90;;;;;;5085124;28;21164;-83
2023/09/03 05:37:41;;;;;;;10.13;8.33;;;11.60;99.90;;;;;;5084138;28;20870;-83
2023/09/03 05:40:10;;;;;;;10.53;9.03;;;11.60;99.90;;;;;;5078079;28;20226;-82
2023/09/03 05:42:38;;;;;;;11.00;8.23;;;11.60;99.90;;;;;;5090305;27;20313;-82
2023/09/03 05:45:07;;;;;;;9.83;8.07;;;11.60;99.90;;;;;;5101818;28;20214;-83
2023/09/03 05:47:34;;;;;;;10.30;9.23;;;11.60;99.90;;;;;;5104617;27;20240;-82
2023/09/03 05:50:03;;;;;;;11.80;8.77;;;11.70;99.90;;;;;;5083670;28;20243;-81
2023/09/03 05:52:30;;;;;;;17.77;9.73;;;11.70;99.90;;;;;;5081325;28;20589;-81
2023/09/03 05:54:56;;;;;;;10.03;9.03;;;11.70;99.90;;;;;;5084992;28;20225;-82
2023/09/03 05:57:23;;;;;;;11.43;9.20;;;11.80;99.90;;;;;;5103723;28;20263;-82
2023/09/03 05:59:51;;;;;;;10.50;8.93;;;11.80;99.90;;;;;;5106318;27;20309;-83
2023/09/03 06:02:20;;;;;;;10.47;8.87;;;11.90;99.90;;;;;;5065852;28;20222;-83
2023/09/03 06:04:49;;;;;;;13.10;8.57;;;11.90;99.90;;;;;;5105499;27;20264;-82
2023/09/03 06:07:16;;;;;;;11.10;8.33;;;12.00;99.90;;;;;;5104585;28;20784;-82
2023/09/03 06:09:43;;;;;;;10.37;7.93;;;12.00;99.90;;;;;;5107905;28;21177;-81
2023/09/03 06:12:10;;;;;;;10.30;8.10;;;12.10;99.90;;;;;;5088679;28;20282;-81
2023/09/03 06:14:36;;;;;;;8.63;7.70;;;12.10;99.90;;;;;;5083927;27;20217;-81
2023/09/03 06:17:04;;;;;;;8.80;7.90;;;12.20;99.90;;;;;;5087820;28;20229;-82
2023/09/03 06:19:32;;;;;;;8.50;7.20;;;12.30;99.90;;;;;;5087694;27;20219;-81
2023/09/03 06:21:59;;;;;;;9.97;7.53;;;12.40;99.90;;;;;;5102321;27;20228;-81
2023/09/03 06:24:25;;;;;;;8.07;7.00;;;12.40;99.90;;;;;;5079031;28;20224;-85
2023/09/03 06:26:52;;;;;;;7.10;6.40;;;12.50;99.90;;;;;;5112175;27;20633;-84
2023/09/03 06:29:19;;;;;;;8.50;6.23;;;12.60;99.90;;;;;;5085878;27;20231;-85
2023/09/03 06:31:45;;;;;;;8.60;7.40;;;12.70;99.90;;;;;;5095589;27;20240;-83
2023/09/03 06:34:12;;;;;;;8.23;7.43;;;12.80;99.90;;;;;;5080980;28;20317;-82
2023/09/03 06:36:40;;;;;;;8.77;6.47;;;12.80;99.90;;;;;;5090038;27;20215;-83
2023/09/03 06:39:07;;;;;;;9.33;7.07;;;12.90;99.90;;;;;;5103931;28;20806;-83
2023/09/03 06:41:33;;;;;;;7.43;6.37;;;13.00;99.90;;;;;;5091842;28;20260;-82
2023/09/03 06:44:00;;;;;;;8.87;7.40;;;13.10;99.90;;;;;;5091733;28;20253;-83
2023/09/03 06:46:27;;;;;;;9.10;7.40;;;13.20;99.90;;;;;;5087630;28;20231;-83
2023/09/03 06:48:54;;;;;;;10.10;7.40;;;13.40;99.90;;;;;;5105414;28;20230;-83
2023/09/03 06:51:20;;;;;;;8.80;6.77;;;13.50;99.90;;;;;;5104839;28;20254;-82
2023/09/03 06:53:48;;;;;;;7.50;6.80;;;13.70;99.90;;;;;;5091696;28;20227;-82
2023/09/03 06:56:15;;;;;;;8.83;6.60;;;13.80;99.90;;;;;;5105119;28;20322;-83
2023/09/03 06:58:42;;;;;;;7.40;6.63;;;13.90;99.90;;;;;;5099022;28;20230;-83
2023/09/03 07:01:08;;;;;;;8.40;6.83;;;14.10;99.90;;;;;;5105813;28;20775;-82
2023/09/03 07:03:35;;;;;;;6.80;5.77;;;14.20;99.90;;;;;;5106720;28;20224;-84
2023/09/03 07:06:02;;;;;;;4.93;3.67;;;14.30;99.90;;;;;;5090466;28;20308;-82
2023/09/03 07:08:29;;;;;;;3.70;2.90;;;14.50;99.90;;;;;;5110220;28;20252;-83
2023/09/03 07:11:00;;;;;;;4.20;2.80;;;14.60;99.90;;;;;;5093781;28;20238;-84
2023/09/03 07:13:27;;;;;;;4.10;2.90;;;14.80;99.90;;;;;;5090948;28;20249;-82
2023/09/03 07:15:54;;;;;;;6.73;2.80;;;15.00;99.90;;;;;;5109673;28;20218;-82
2023/09/03 07:18:20;;;;;;;5.13;2.57;;;15.20;99.90;;;;;;5090777;28;20229;-81
2023/09/03 07:20:47;;;;;;;3.93;2.67;;;15.30;99.90;;;;;;5091481;28;20943;-80
2023/09/03 07:23:14;;;;;;;6.53;2.53;;;15.50;99.90;;;;;;5100572;28;20736;-84
2023/09/03 07:25:40;;;;;;;5.10;2.60;;;15.60;99.90;;;;;;5089061;28;20624;-84
2023/09/03 07:28:09;;;;;;;4.77;2.00;;;15.70;99.90;;;;;;5092123;28;20248;-82
2023/09/03 07:30:35;;;;;;;3.63;1.73;;;15.80;99.90;;;;;;5110343;28;20225;-83
2023/09/03 07:33:02;;;;;;;3.17;1.80;;;15.90;99.90;;;;;;5078358;28;20222;-82
2023/09/03 07:35:31;;;;;;;2.30;1.70;;;16.00;99.90;;;;;;5087495;28;20309;-82
2023/09/03 07:37:58;;;;;;;4.03;2.00;;;16.00;99.90;;;;;;5088599;28;20301;-83
2023/09/03 07:40:25;;;;;;;3.27;2.00;;;16.20;99.90;;;;;;5084446;28;20222;-82
2023/09/03 07:42:52;;;;;;;3.40;1.90;;;16.20;99.90;;;;;;5085706;28;20218;-83
2023/09/03 07:45:20;;;;;;;4.93;1.77;;;16.30;99.90;;;;;;5088516;28;20705;-82
2023/09/03 07:47:46;;;;;;;1.40;1.23;;;16.40;99.90;;;;;;5104984;28;20287;-83
2023/09/03 07:50:13;;;;;;;2.10;1.20;;;16.50;99.90;;;;;;5105865;28;20222;-83
2023/09/03 07:52:40;;;;;;;4.10;1.30;;;16.80;99.90;;;;;;5088853;28;20252;-84
2023/09/03 07:55:08;;;;;;;3.95;1.23;;;17.10;99.90;;;;;;5098975;28;20651;-83
2023/09/03 07:57:34;;;;;;;3.95;1.17;;;17.50;99.90;;;;;;5085368;28;21058;-84
2023/09/03 08:00:01;;;;;;;2.55;1.40;;;17.90;99.90;;;;;;5110137;28;20218;-84
2023/09/03 08:02:30;;;;;;;3.33;1.17;;;18.50;99.90;;;;;;5081579;28;20313;-84
2023/09/03 08:04:57;;;;;;;3.05;0.93;;;19.00;99.90;;;;;;5105600;28;20706;-83
2023/09/03 08:07:24;;;;;;;1.63;1.10;;;19.50;99.90;;;;;;5102042;28;21575;-83
2023/09/03 08:09:51;;;;;;;1.90;0.90;;;20.00;99.90;;;;;;5097031;28;20218;-83
2023/09/03 08:12:18;;;;;;;2.95;1.17;;;20.40;99.90;;;;;;5079635;28;20230;-83
2023/09/03 08:14:48;;;;;;;2.13;1.00;;;20.70;99.90;;;;;;5102521;27;20305;-86
2023/09/03 08:17:15;;;;;;;4.00;1.10;;;20.90;99.90;;;;;;5101159;28;20774;-84
2023/09/03 08:19:43;;;;;;;2.45;0.90;;;21.10;99.90;;;;;;5096188;27;20244;-83
2023/09/03 08:22:09;;;;;;;3.88;1.05;;;21.30;99.90;;;;;;5078956;27;20293;-84
2023/09/03 08:24:36;;;;;;;1.80;1.10;;;21.50;99.90;;;;;;5078477;28;20229;-84
2023/09/03 08:27:03;;;;;;;3.20;1.40;;;21.80;99.90;;;;;;5098259;27;20228;-84
2023/09/03 08:29:29;;;;;;;2.85;1.20;;;22.10;99.90;;;;;;5081202;28;20225;-85
2023/09/03 08:31:56;;;;;;;1.83;1.08;;;22.40;99.90;;;;;;5075188;28;20325;-83
2023/09/03 08:34:23;;;;;;;1.10;1.00;;;22.70;99.90;;;;;;5077667;28;20229;-83
2023/09/03 08:36:51;;;;;;;3.00;1.10;;;22.90;99.90;;;;;;5100399;27;20221;-83
2023/09/03 08:39:17;;;;;;;1.85;1.00;;;22.90;99.90;;;;;;5098146;27;20224;-83
2023/09/03 08:41:46;;;;;;;2.33;1.00;;;22.80;99.90;;;;;;5102204;27;20239;-83
2023/09/03 08:44:19;;;;;;;2.10;1.10;;;22.70;99.90;;;;;;5081551;28;20237;-84
2023/09/03 08:46:52;;;;;;;1.48;1.00;;;22.80;99.90;;;;;;5101262;27;21093;-84
2023/09/03 08:49:19;;;;;;;1.83;1.00;;;22.80;99.90;;;;;;5097893;28;20219;-83
2023/09/03 08:51:46;;;;;;;3.35;1.30;;;23.00;99.90;;;;;;5104278;27;20328;-85
2023/09/03 08:54:14;;;;;;;1.60;1.05;;;23.00;99.90;;;;;;5098815;27;20218;-82
2023/09/03 08:56:41;;;;;;;1.33;1.00;;;23.10;99.90;;;;;;5097349;27;20756;-83
2023/09/03 08:59:08;;;;;;;1.83;1.00;;;23.20;99.90;;;;;;5102616;28;20218;-84
2023/09/03 09:01:37;;;;;;;2.17;1.00;;;23.40;99.30;;;;;;5097924;27;20225;-84
2023/09/03 09:04:06;;;;;;;1.50;1.10;;;23.50;98.80;;;;;;5097840;28;20321;-82
2023/09/03 09:06:34;;;;;;;2.25;1.00;;;23.70;98.90;;;;;;5086470;28;20226;-82
2023/09/03 09:09:03;;;;;;;3.50;1.35;;;23.70;98.30;;;;;;5109945;28;20343;-84
2023/09/03 09:11:38;;;;;;;2.28;1.05;;;23.70;98.50;;;;;;5103886;28;20229;-85
2023/09/03 09:14:09;;;;;;;1.48;1.20;;;23.60;98.30;;;;;;5094061;27;20255;-86
2023/09/03 09:16:36;;;;;;;2.50;1.20;;;23.80;98.70;;;;;;5096043;28;20230;-84
2023/09/03 09:19:03;;;;;;;2.20;1.25;;;24.10;98.90;;;;;;5095771;28;20218;-85
2023/09/03 09:21:30;;;;;;;1.45;1.13;;;24.50;98.30;;;;;;5079491;28;20229;-85
2023/09/03 09:24:01;;;;;;;2.50;1.20;;;24.90;97.60;;;;;;5107255;27;20996;-84
2023/09/03 09:26:32;;;;;;;3.08;1.30;;;25.20;96.50;;;;;;5080663;28;20222;-83
2023/09/03 09:29:00;;;;;;;2.47;1.20;;;25.30;95.90;;;;;;5095613;27;20222;-84
2023/09/03 09:31:29;;;;;;;2.00;1.10;;;25.40;95.90;;;;;;5096433;28;20240;-85
2023/09/03 09:33:56;;;;;;;1.67;1.20;;;25.50;96.10;;;;;;5092581;27;20252;-85
2023/09/03 09:36:23;;;;;;;1.83;1.15;;;25.70;95.60;;;;;;5099613;28;20218;-82
2023/09/03 09:38:49;;;;;;;1.42;1.30;;;25.70;95.10;;;;;;5099067;28;20226;-81
2023/09/03 09:41:24;;;;;;;1.45;0.85;;;25.70;94.80;;;;;;5081897;28;20823;-82
2023/09/03 09:43:53;;;;;;;1.73;1.35;;;25.80;94.40;;;;;;5082342;28;20226;-82
2023/09/03 09:46:27;;;;;;;1.80;1.30;;;25.80;94.90;;;;;;5103218;27;20239;-81
2023/09/03 09:48:58;;;;;;;1.98;1.20;;;25.90;94.40;;;;;;5086226;28;20227;-82
2023/09/03 09:51:26;;;;;;;1.70;1.00;;;26.10;93.70;;;;;;5081582;28;20226;-82
2023/09/03 09:53:56;;;;;;;1.67;1.10;;;26.20;93.90;;;;;;5066600;28;20923;-82
2023/09/03 09:56:26;;;;;;;2.88;1.38;;;26.30;93.10;;;;;;5084515;28;20237;-82
2023/09/03 09:58:54;;;;;;;1.88;1.10;;;26.40;93.40;;;;;;5080606;28;20222;-83
2023/09/03 10:01:23;;;;;;;1.23;1.00;;;26.50;93.50;;;;;;5094395;28;20226;-82
2023/09/03 10:03:50;;;;;;;1.95;1.38;;;26.50;93.20;;;;;;5096982;28;20218;-82
2023/09/03 10:06:18;;;;;;;2.05;1.23;;;26.50;92.80;;;;;;5111580;28;20236;-83
2023/09/03 10:08:46;;;;;;;1.38;1.20;;;26.40;92.50;;;;;;5112504;28;20253;-83
2023/09/03 10:11:13;;;;;;;2.35;1.30;;;26.20;92.00;;;;;;5111899;28;20668;-82
2023/09/03 10:13:41;;;;;;;1.63;1.20;;;26.00;92.30;;;;;;5102982;28;20229;-82
2023/09/03 10:16:10;;;;;;;2.42;1.20;;;25.80;92.70;;;;;;5083174;28;20225;-82
2023/09/03 10:18:40;;;;;;;2.30;1.40;;;25.60;92.50;;;;;;5094214;28;20225;-82
2023/09/03 10:21:08;;;;;;;1.20;1.08;;;25.60;92.60;;;;;;5071522;28;20238;-82
2023/09/03 10:23:41;;;;;;;2.42;1.40;;;25.60;92.40;;;;;;5119540;27;20229;-82
2023/09/03 10:26:10;;;;;;;2.15;1.10;;;25.70;92.10;;;;;;5131064;27;20226;-82
2023/09/03 10:28:41;;;;;;;1.23;1.00;;;25.70;92.00;;;;;;5110542;27;20227;-83
2023/09/03 10:31:10;;;;;;;3.10;1.17;;;25.80;92.00;;;;;;5090122;28;20230;-82
2023/09/03 10:33:40;;;;;;;1.52;1.42;;;25.80;91.90;;;;;;5064062;28;20222;-83
2023/09/03 10:36:14;;;;;;;2.00;1.27;;;25.90;91.10;;;;;;5091609;27;20695;-83
2023/09/03 10:38:41;;;;;;;3.55;1.33;;;26.00;91.20;;;;;;5091160;28;20955;-83
2023/09/03 10:41:19;;;;;;;2.25;1.10;;;26.20;91.60;;;;;;5073975;28;20233;-83
2023/09/03 10:43:46;;;;;;;3.28;1.33;;;26.40;91.20;;;;;;5076943;28;20852;-83
2023/09/03 10:46:14;;;;;;;3.00;1.10;;;26.50;91.00;;;;;;5072769;28;20218;-83
2023/09/03 10:48:50;;;;;;;3.00;1.40;;;26.60;90.90;;;;;;5075468;28;20222;-83
2023/09/03 10:51:31;;;;;;;3.42;1.30;;;26.70;90.20;;;;;;5095165;27;20230;-83
2023/09/03 10:54:15;;;;;;;1.98;1.25;;;26.70;89.40;;;;;;5075150;28;20697;-83
2023/09/03 10:57:15;;;;;;;2.15;1.25;;;26.70;89.10;;;;;;5090662;27;20651;-83
2023/09/03 11:00:08;;;;;;;1.63;1.10;;;26.80;88.70;;;;;;5090049;27;20287;-83
2023/09/03 11:02:37;;;;;;;2.75;1.30;;;26.90;87.60;;;;;;5093839;27;20241;-83
2023/09/03 11:05:11;;;;;;;3.03;1.40;;;26.90;88.60;;;;;;5071398;28;20800;-85
2023/09/03 11:07:38;;;;;;;2.08;1.27;;;26.90;87.10;;;;;;5092469;28;20217;-84
2023/09/03 11:10:42;;;;;;;1.58;1.20;;;26.90;88.10;;;;;;5096620;27;21757;-85
2023/09/03 11:13:10;;;;;;;1.65;1.27;;;26.70;88.40;;;;;;5085741;28;20719;-84
2023/09/03 11:15:38;;;;;;;2.78;1.38;;;26.70;88.40;;;;;;5076437;28;20222;-85
2023/09/03 11:18:06;;;;;;;3.70;1.23;;;26.50;87.90;;;;;;5099017;28;20707;-83
2023/09/03 11:20:34;;;;;;;1.48;1.25;;;26.30;87.00;;;;;;5103977;27;20865;-84
2023/09/03 11:23:02;;;;;;;2.10;1.17;;;26.00;87.80;;;;;;5104964;28;20228;-83
2023/09/03 11:25:34;;;;;;;2.10;1.30;;;25.80;88.30;;;;;;5083858;28;20232;-84
2023/09/03 11:28:02;;;;;;;1.88;1.20;;;25.60;88.10;;;;;;5089349;28;20229;-84
2023/09/03 11:30:29;;;;;;;1.58;0.98;;;25.60;89.20;;;;;;5085189;28;20249;-83
2023/09/03 11:32:55;;;;;;;1.77;1.20;;;25.60;88.30;;;;;;5080778;28;20288;-85
2023/09/03 11:35:25;;;;;;;2.63;1.30;;;25.70;87.70;;;;;;5093237;28;20218;-84
2023/09/03 11:37:53;;;;;;;2.55;1.30;;;25.80;87.40;;;;;;5082020;28;20880;-84
2023/09/03 11:40:25;;;;;;;1.52;1.15;;;25.80;87.50;;;;;;5098289;28;20218;-85
2023/09/03 11:42:52;;;;;;;2.47;1.45;;;25.80;86.70;;;;;;5081305;28;20229;-82
2023/09/03 11:45:18;;;;;;;1.88;1.35;;;25.90;87.90;;;;;;5086984;27;20284;-83
2023/09/03 11:47:48;;;;;;;1.75;1.10;;;25.90;87.20;;;;;;5079392;28;20217;-86
2023/09/03 11:50:16;;;;;;;2.25;1.30;;;26.00;85.80;;;;;;5084715;28;20214;-85
2023/09/03 11:52:49;;;;;;;2.28;1.10;;;26.00;86.30;;;;;;5082202;28;20224;-85
2023/09/03 11:55:16;;;;;;;2.47;1.20;;;26.10;85.30;;;;;;5091106;27;20284;-85
2023/09/03 11:57:44;;;;;;;2.60;1.50;;;26.10;86.50;;;;;;5091133;28;20224;-85
2023/09/03 12:00:13;;;;;;;1.83;1.15;;;26.10;85.50;;;;;;5085824;27;20355;-85
2023/09/03 12:02:40;;;;;;;2.03;1.35;;;26.00;85.00;;;;;;5103392;27;20313;-84
2023/09/03 12:05:08;;;;;;;1.90;1.40;;;25.90;84.80;;;;;;5085258;28;20234;-85
2023/09/03 12:07:34;;;;;;;1.52;1.00;;;25.70;85.40;;;;;;5105201;27;20218;-84
2023/09/03 12:10:03;;;;;;;2.10;1.38;;;25.50;85.50;;;;;;5083144;28;20311;-85
2023/09/03 12:12:29;;;;;;;1.20;0.90;;;25.40;85.60;;;;;;5102025;27;20237;-85
2023/09/03 12:14:56;;;;;;;2.13;1.10;;;25.30;85.70;;;;;;5090928;27;20707;-85
2023/09/03 12:17:23;;;;;;;2.42;1.13;;;25.20;85.40;;;;;;5083880;28;22564;-85
2023/09/03 12:19:50;;;;;;;1.73;1.13;;;25.10;85.90;;;;;;5085410;28;20215;-85
2023/09/03 12:22:18;;;;;;;1.45;1.20;;;25.00;86.30;;;;;;5090035;28;20222;-85
2023/09/03 12:24:47;;;;;;;1.70;1.17;;;25.00;87.00;;;;;;5089203;28;20276;-84
2023/09/03 12:27:15;;;;;;;2.08;1.25;;;24.90;86.80;;;;;;5082480;28;20225;-85
2023/09/03 12:29:43;;;;;;;3.78;1.55;;;24.90;87.70;;;;;;5103294;27;20351;-85
2023/09/03 12:32:14;;;;;;;1.73;1.17;;;24.80;87.90;;;;;;5105161;27;20218;-85
2023/09/03 12:34:48;;;;;;;2.13;1.27;;;24.70;88.10;;;;;;5085558;28;22060;-85
2023/09/03 12:37:15;;;;;;;3.05;1.30;;;24.70;88.30;;;;;;5081490;28;20222;-86
2023/09/03 12:39:42;;;;;;;2.25;1.27;;;24.60;88.10;;;;;;5102854;27;20221;-84
2023/09/03 12:42:10;;;;;;;2.22;1.30;;;24.50;87.60;;;;;;5079224;27;20226;-86
2023/09/03 12:44:42;;;;;;;4.20;1.10;;;24.50;87.20;;;;;;5099321;27;20226;-85
2023/09/03 12:47:10;;;;;;;2.15;1.20;;;24.50;87.10;;;;;;5106553;27;20229;-84
2023/09/03 12:49:36;;;;;;;3.33;1.45;;;24.40;87.80;;;;;;5082448;27;20658;-85
2023/09/03 12:52:03;;;;;;;1.38;1.00;;;24.40;88.00;;;;;;5086749;28;20941;-84